Time;durP1;ratioP1;P1;durP2;ratioP2;P2;SDS_P1;SDS_P2;PMS_P1;PMS_P2;Temp;Humidity;BMP_temperature;BMP_pressure;BME280_temperature;BME280_humidity;BME280_pressure;Samples;Min_cycle;Max_cycle;Signal;HPM_P1;HPM_P2
2023/06/04 00:02:24;;;;;;;4.25;1.40;;;12.00;99.90;;;;;;5055852;28;20049;-53
2023/06/04 00:04:50;;;;;;;3.75;1.13;;;12.00;99.90;;;;;;5056320;28;20045;-54
2023/06/04 00:07:15;;;;;;;4.33;1.77;;;11.90;99.90;;;;;;5055918;28;20051;-54
2023/06/04 00:09:41;;;;;;;3.80;1.60;;;11.90;99.90;;;;;;5056062;28;20045;-53
2023/06/04 00:12:07;;;;;;;5.60;1.70;;;11.90;99.90;;;;;;5055906;28;20072;-54
2023/06/04 00:14:33;;;;;;;5.15;1.80;;;11.90;99.90;;;;;;5054845;28;20536;-53
2023/06/04 00:16:58;;;;;;;4.77;1.67;;;11.90;99.90;;;;;;5055866;28;20131;-53
2023/06/04 00:19:24;;;;;;;4.23;1.47;;;11.80;99.90;;;;;;5055966;28;20045;-52
2023/06/04 00:21:50;;;;;;;4.47;1.57;;;11.80;99.90;;;;;;5054628;28;20396;-53
2023/06/04 00:24:16;;;;;;;4.87;1.63;;;11.90;99.90;;;;;;5055823;28;20048;-55
2023/06/04 00:26:42;;;;;;;3.15;1.50;;;11.80;99.90;;;;;;5055345;28;20064;-54
2023/06/04 00:29:08;;;;;;;4.07;1.70;;;11.80;99.90;;;;;;5054665;28;20408;-54
2023/06/04 00:31:34;;;;;;;5.82;1.52;;;11.80;99.90;;;;;;5055275;28;20189;-54
2023/06/04 00:33:59;;;;;;;5.30;1.83;;;11.80;99.90;;;;;;5054703;28;20045;-53
2023/06/04 00:36:25;;;;;;;3.73;1.30;;;11.80;99.90;;;;;;5055598;28;20303;-53
2023/06/04 00:38:51;;;;;;;3.80;1.53;;;11.80;99.90;;;;;;5055534;28;20048;-53
2023/06/04 00:41:16;;;;;;;4.60;1.63;;;11.80;99.90;;;;;;5055358;28;20124;-54
2023/06/04 00:43:45;;;;;;;4.57;1.30;;;11.70;99.90;;;;;;5055298;28;20048;-53
2023/06/04 00:46:17;;;;;;;3.92;1.70;;;11.70;99.90;;;;;;5054128;28;20049;-54
2023/06/04 00:48:44;;;;;;;5.05;1.60;;;11.70;99.90;;;;;;5055458;28;20087;-52
2023/06/04 00:51:11;;;;;;;5.72;1.90;;;11.60;99.90;;;;;;5055198;28;20044;-51
2023/06/04 00:53:37;;;;;;;3.30;1.40;;;11.60;99.90;;;;;;5054994;28;20045;-52
2023/06/04 00:56:05;;;;;;;3.13;1.40;;;11.60;99.90;;;;;;5055282;28;20041;-51
2023/06/04 00:58:37;;;;;;;2.33;1.00;;;11.50;99.90;;;;;;5054891;28;20045;-54
2023/06/04 01:01:07;;;;;;;3.05;1.20;;;11.50;99.90;;;;;;5055140;28;20041;-52
2023/06/04 01:03:37;;;;;;;2.70;1.20;;;11.50;99.90;;;;;;5055190;28;20049;-53
2023/06/04 01:06:24;;;;;;;2.97;1.20;;;11.50;99.90;;;;;;5054980;28;20098;-54
2023/06/04 01:08:54;;;;;;;3.55;1.35;;;11.40;99.90;;;;;;5054698;28;20500;-52
2023/06/04 01:11:37;;;;;;;4.32;1.30;;;11.40;99.90;;;;;;5055089;28;20044;-53
2023/06/04 01:14:08;;;;;;;2.90;1.10;;;11.30;99.90;;;;;;5054762;28;20048;-54
2023/06/04 01:17:02;;;;;;;3.08;1.40;;;11.30;99.90;;;;;;5054654;28;20049;-51
2023/06/04 01:20:08;;;;;;;4.07;1.38;;;11.30;99.90;;;;;;5054667;28;20586;-53
2023/06/04 01:22:43;;;;;;;3.60;1.23;;;11.30;99.90;;;;;;5054880;28;20123;-52
2023/06/04 01:25:32;;;;;;;3.97;1.50;;;11.30;99.90;;;;;;5054657;28;20080;-53
2023/06/04 01:27:58;;;;;;;5.00;1.58;;;11.30;99.90;;;;;;5054634;28;20569;-53
2023/06/04 01:30:26;;;;;;;3.58;1.50;;;11.20;99.90;;;;;;5053685;28;20049;-51
2023/06/04 01:32:54;;;;;;;3.38;1.50;;;11.30;99.90;;;;;;5054855;28;20045;-51
2023/06/04 01:35:20;;;;;;;6.40;1.80;;;11.20;99.90;;;;;;5054625;28;20049;-51
2023/06/04 01:37:47;;;;;;;3.67;1.30;;;11.20;99.90;;;;;;5054322;28;20503;-51
2023/06/04 01:40:13;;;;;;;3.58;1.30;;;11.20;99.90;;;;;;5054187;28;20048;-54
2023/06/04 01:42:39;;;;;;;3.85;1.33;;;11.20;99.90;;;;;;5054293;28;20056;-53
2023/06/04 01:45:05;;;;;;;4.67;1.37;;;11.20;99.90;;;;;;5054287;28;20087;-53
2023/06/04 01:47:30;;;;;;;3.13;1.10;;;11.10;99.90;;;;;;5053146;28;20055;-50
2023/06/04 01:49:56;;;;;;;2.73;1.43;;;11.10;99.90;;;;;;5054155;28;20041;-52
2023/06/04 01:52:22;;;;;;;4.07;1.17;;;11.10;99.90;;;;;;5053829;28;20056;-54
2023/06/04 01:54:52;;;;;;;1.52;0.65;;;11.10;99.90;;;;;;5053871;28;20151;-54
2023/06/04 01:57:21;;;;;;;4.32;1.70;;;11.10;99.90;;;;;;5054013;28;20045;-52
2023/06/04 01:59:48;;;;;;;3.22;1.05;;;11.10;99.90;;;;;;5052745;28;20111;-50
2023/06/04 02:02:15;;;;;;;2.17;0.90;;;11.10;99.90;;;;;;5053861;28;20226;-50
2023/06/04 02:04:41;;;;;;;;;;;11.00;99.90;;;;;;5054235;28;20040;-53
2023/06/04 02:07:11;;;;;;;3.50;0.90;;;11.00;99.90;;;;;;5053327;28;19947;-52
2023/06/04 02:09:37;;;;;;;2.67;1.13;;;11.00;99.90;;;;;;5052357;28;20045;-50
2023/06/04 02:12:03;;;;;;;2.55;0.73;;;11.00;99.90;;;;;;5053726;28;20045;-53
2023/06/04 02:14:29;;;;;;;2.78;0.88;;;10.90;99.90;;;;;;5053791;28;20124;-53
2023/06/04 02:16:57;;;;;;;2.33;0.70;;;10.90;99.90;;;;;;5053802;28;20458;-50
2023/06/04 02:19:26;;;;;;;2.72;0.93;;;10.90;99.90;;;;;;5053804;28;20053;-53
2023/06/04 02:21:53;;;;;;;2.42;0.90;;;10.90;99.90;;;;;;5053420;28;20040;-51
2023/06/04 02:24:19;;;;;;;;;;;10.80;99.90;;;;;;5054224;28;20404;-54
2023/06/04 02:26:45;;;;;;;2.65;0.80;;;10.70;99.90;;;;;;5053490;28;19920;-50
2023/06/04 02:29:10;;;;;;;2.37;0.87;;;10.70;99.90;;;;;;5053423;28;20136;-51
2023/06/04 02:31:36;;;;;;;2.93;0.70;;;10.60;99.90;;;;;;5053526;28;20056;-50
2023/06/04 02:34:03;;;;;;;1.57;0.70;;;10.60;99.90;;;;;;5053593;28;20050;-51
2023/06/04 02:36:29;;;;;;;3.03;0.93;;;10.60;99.90;;;;;;5053247;28;20080;-49
2023/06/04 02:38:55;;;;;;;;;;;10.60;99.90;;;;;;5053885;28;20056;-52
2023/06/04 02:41:22;;;;;;;2.03;0.70;;;10.50;99.90;;;;;;5053483;28;19920;-51
2023/06/04 02:43:48;;;;;;;1.55;0.60;;;10.50;99.90;;;;;;5053774;28;20408;-51
2023/06/04 02:46:13;;;;;;;2.40;0.87;;;10.40;99.90;;;;;;5053469;28;20047;-50
2023/06/04 02:48:39;;;;;;;2.40;0.90;;;10.40;99.90;;;;;;5053422;28;20041;-49
2023/06/04 02:51:05;;;;;;;2.20;0.73;;;10.40;99.90;;;;;;5053117;28;20055;-49
2023/06/04 02:53:30;;;;;;;2.55;0.73;;;10.30;99.90;;;;;;5053403;28;20049;-50
2023/06/04 02:55:56;;;;;;;1.80;0.70;;;10.30;99.90;;;;;;5053404;28;20049;-50
2023/06/04 02:58:25;;;;;;;1.40;0.50;;;10.30;99.90;;;;;;5052381;28;20284;-50
2023/06/04 03:00:52;;;;;;;2.08;0.80;;;10.30;99.90;;;;;;5053182;28;20575;-50
2023/06/04 03:03:18;;;;;;;1.65;0.60;;;10.20;99.90;;;;;;5053287;28;20091;-49
2023/06/04 03:05:44;;;;;;;1.48;0.80;;;10.20;99.90;;;;;;5053097;28;20088;-49
2023/06/04 03:08:09;;;;;;;2.33;0.93;;;10.20;99.90;;;;;;5053144;28;20049;-49
2023/06/04 03:10:35;;;;;;;2.67;0.73;;;10.20;99.90;;;;;;5053125;28;20045;-50
2023/06/04 03:13:01;;;;;;;2.03;0.90;;;10.30;99.90;;;;;;5053032;28;20041;-50
2023/06/04 03:15:26;;;;;;;6.90;2.30;;;10.30;99.90;;;;;;5053036;28;20045;-49
2023/06/04 03:17:52;;;;;;;21.20;6.87;;;10.20;99.90;;;;;;5054299;28;20464;-52
2023/06/04 03:20:18;;;;;;;34.87;11.33;;;10.20;99.90;;;;;;5056685;28;20045;-50
2023/06/04 03:22:43;;;;;;;50.03;18.27;;;10.20;99.90;;;;;;5056626;28;20052;-49
2023/06/04 03:25:10;;;;;;;45.47;17.27;;;10.30;99.90;;;;;;5057081;28;20048;-49
2023/06/04 03:27:35;;;;;;;52.15;18.00;;;10.20;99.90;;;;;;5057056;28;20053;-49
2023/06/04 03:30:02;;;;;;;55.13;18.73;;;10.20;99.90;;;;;;5056746;28;20060;-49
2023/06/04 03:32:28;;;;;;;38.80;16.27;;;10.20;99.90;;;;;;5055762;28;20057;-50
2023/06/04 03:34:54;;;;;;;32.90;11.93;;;10.20;99.90;;;;;;5056584;28;20083;-49
2023/06/04 03:37:20;;;;;;;12.03;4.70;;;10.20;99.90;;;;;;5057199;28;20489;-49
2023/06/04 03:39:45;;;;;;;13.20;4.97;;;10.30;99.90;;;;;;5056670;28;20128;-52
2023/06/04 03:42:11;;;;;;;14.50;5.03;;;10.30;99.90;;;;;;5056801;28;20048;-50
2023/06/04 03:44:37;;;;;;;16.63;6.30;;;10.30;99.90;;;;;;5056673;28;20396;-49
2023/06/04 03:47:02;;;;;;;17.47;6.77;;;10.30;99.90;;;;;;5056511;28;20045;-51
2023/06/04 03:49:28;;;;;;;15.77;6.53;;;10.30;99.90;;;;;;5056211;28;20045;-52
2023/06/04 03:51:54;;;;;;;13.23;5.50;;;10.30;99.90;;;;;;5056043;28;20044;-49
2023/06/04 03:54:22;;;;;;;9.80;4.07;;;10.30;99.90;;;;;;5056323;28;20548;-49
2023/06/04 03:56:47;;;;;;;7.13;2.88;;;10.30;99.90;;;;;;5056207;28;20045;-50
2023/06/04 03:59:13;;;;;;;4.77;1.60;;;10.20;99.90;;;;;;5056448;28;20052;-50
2023/06/04 04:01:39;;;;;;;6.00;2.20;;;10.20;99.90;;;;;;5056234;28;20435;-49
2023/06/04 04:04:05;;;;;;;6.47;2.50;;;10.10;99.90;;;;;;5055986;28;20091;-49
2023/06/04 04:06:31;;;;;;;7.35;2.78;;;10.10;99.90;;;;;;5038649;28;20056;-49
2023/06/04 04:08:58;;;;;;;5.33;1.63;;;10.10;99.90;;;;;;5056126;28;20118;-49
2023/06/04 04:11:23;;;;;;;4.03;1.20;;;10.10;99.90;;;;;;5056071;28;20049;-49
2023/06/04 04:13:49;;;;;;;3.13;1.20;;;10.10;99.90;;;;;;5056223;28;20052;-49
2023/06/04 04:16:15;;;;;;;2.23;1.00;;;10.10;99.90;;;;;;5055909;28;20286;-49
2023/06/04 04:18:46;;;;;;;2.43;1.20;;;10.20;99.90;;;;;;5055813;28;20048;-49
2023/06/04 04:21:12;;;;;;;3.95;1.10;;;10.20;99.90;;;;;;5055765;28;20052;-50
2023/06/04 04:23:40;;;;;;;3.43;1.40;;;10.20;99.90;;;;;;5038066;28;20041;-49
2023/06/04 04:26:07;;;;;;;3.03;1.25;;;10.20;99.90;;;;;;5055882;28;20440;-49
2023/06/04 04:28:34;;;;;;;2.63;1.20;;;10.20;99.90;;;;;;5055478;28;20045;-49
2023/06/04 04:31:02;;;;;;;2.88;1.33;;;10.30;99.90;;;;;;5055524;28;20048;-52
2023/06/04 04:33:32;;;;;;;3.17;1.33;;;10.30;99.90;;;;;;5055391;28;20049;-49
2023/06/04 04:35:59;;;;;;;3.78;1.60;;;10.30;99.90;;;;;;5055674;28;20127;-51
2023/06/04 04:38:25;;;;;;;3.55;1.35;;;10.40;99.90;;;;;;5055494;28;20138;-51
2023/06/04 04:40:52;;;;;;;3.15;1.45;;;10.40;99.90;;;;;;5055373;28;20484;-48
2023/06/04 04:43:30;;;;;;;3.28;1.45;;;10.40;99.90;;;;;;5055398;28;20036;-50
2023/06/04 04:45:56;;;;;;;2.97;1.50;;;10.50;99.90;;;;;;5055181;28;20139;-49
2023/06/04 04:48:22;;;;;;;3.67;1.80;;;10.50;99.90;;;;;;5055586;28;20152;-49
2023/06/04 04:50:47;;;;;;;2.97;1.30;;;10.60;99.90;;;;;;5055610;28;20041;-48
2023/06/04 04:53:13;;;;;;;4.47;1.70;;;10.60;99.90;;;;;;5054206;28;20044;-49
2023/06/04 04:55:39;;;;;;;3.10;1.40;;;10.70;99.90;;;;;;5055261;28;20048;-49
2023/06/04 04:58:05;;;;;;;3.10;1.40;;;10.70;99.90;;;;;;5055168;28;20044;-51
2023/06/04 05:00:31;;;;;;;3.40;1.55;;;10.80;99.90;;;;;;5055111;28;20071;-49
2023/06/04 05:02:56;;;;;;;4.77;1.67;;;10.90;99.90;;;;;;5055216;28;20396;-49
2023/06/04 05:05:22;;;;;;;2.70;1.43;;;10.90;99.90;;;;;;5054180;28;20403;-52
2023/06/04 05:07:48;;;;;;;4.38;1.98;;;11.00;99.90;;;;;;5055116;28;20439;-52
2023/06/04 05:10:14;;;;;;;4.47;1.80;;;11.10;99.90;;;;;;5054873;28;20051;-49
2023/06/04 05:12:50;;;;;;;3.60;1.80;;;11.20;99.90;;;;;;5054889;28;20052;-49
2023/06/04 05:15:17;;;;;;;4.53;2.28;;;11.40;99.90;;;;;;5053369;28;20197;-50
2023/06/04 05:17:43;;;;;;;7.03;2.67;;;11.70;99.90;;;;;;5054854;28;20060;-49
2023/06/04 05:20:11;;;;;;;5.90;2.50;;;12.30;99.90;;;;;;5054740;28;20132;-49
2023/06/04 05:22:38;;;;;;;5.85;2.17;;;12.80;99.90;;;;;;5054672;28;20540;-50
2023/06/04 05:25:04;;;;;;;5.32;2.30;;;12.90;99.90;;;;;;5054581;28;20400;-49
2023/06/04 05:27:31;;;;;;;4.80;2.22;;;12.90;99.90;;;;;;5054783;28;20061;-50
2023/06/04 05:29:57;;;;;;;5.97;2.55;;;12.90;99.90;;;;;;5054113;28;20119;-51
2023/06/04 05:32:23;;;;;;;5.95;2.97;;;12.90;99.90;;;;;;5054474;28;20481;-49
2023/06/04 05:34:49;;;;;;;5.83;2.60;;;12.80;99.90;;;;;;5054471;28;20063;-50
2023/06/04 05:37:16;;;;;;;7.38;2.85;;;12.80;99.90;;;;;;5054322;28;20072;-50
2023/06/04 05:39:42;;;;;;;7.78;2.55;;;12.80;99.90;;;;;;5054166;28;20049;-54
2023/06/04 05:42:09;;;;;;;5.65;2.50;;;12.90;99.90;;;;;;5052846;28;20435;-52
2023/06/04 05:44:34;;;;;;;6.38;2.40;;;13.00;99.90;;;;;;5054064;28;20132;-50
2023/06/04 05:47:01;;;;;;;7.83;2.50;;;13.00;99.90;;;;;;5054264;28;20132;-52
2023/06/04 05:49:26;;;;;;;6.32;2.35;;;13.10;99.90;;;;;;5053253;28;20045;-52
2023/06/04 05:51:52;;;;;;;7.00;2.47;;;13.20;99.90;;;;;;5053940;28;20480;-52
2023/06/04 05:54:18;;;;;;;6.80;2.57;;;13.20;99.90;;;;;;5054019;28;20045;-49
2023/06/04 05:56:43;;;;;;;5.77;2.33;;;13.30;99.90;;;;;;5053900;28;20048;-53
2023/06/04 05:59:09;;;;;;;5.43;2.60;;;13.30;99.90;;;;;;5053896;28;20055;-53
2023/06/04 06:01:35;;;;;;;8.57;2.73;;;13.40;99.90;;;;;;5054040;28;20040;-53
2023/06/04 06:04:00;;;;;;;5.73;2.40;;;13.40;99.90;;;;;;5053958;28;20070;-49
2023/06/04 06:06:26;;;;;;;6.13;2.20;;;13.50;99.90;;;;;;5053836;28;20084;-50
2023/06/04 06:08:52;;;;;;;4.17;1.77;;;13.60;99.90;;;;;;5053806;28;20041;-54
2023/06/04 06:11:18;;;;;;;5.60;1.90;;;13.60;99.90;;;;;;5053795;28;20392;-54
2023/06/04 06:13:43;;;;;;;5.30;1.87;;;13.70;99.90;;;;;;5053840;28;20053;-53
2023/06/04 06:16:09;;;;;;;4.97;1.20;;;13.80;99.90;;;;;;5053786;28;20044;-50
2023/06/04 06:18:35;;;;;;;4.07;1.23;;;13.80;99.90;;;;;;5054028;28;20053;-53
2023/06/04 06:21:00;;;;;;;3.60;1.27;;;13.90;99.90;;;;;;5053948;28;20148;-51
2023/06/04 06:23:26;;;;;;;4.00;1.15;;;13.90;99.90;;;;;;5053647;28;20059;-54
2023/06/04 06:25:52;;;;;;;4.77;1.23;;;14.00;99.90;;;;;;5053203;28;20044;-55
2023/06/04 06:28:18;;;;;;;3.63;1.15;;;14.10;99.90;;;;;;5053607;28;20056;-54
2023/06/04 06:30:44;;;;;;;2.75;1.13;;;14.20;99.90;;;;;;5053587;28;20547;-56
2023/06/04 06:33:10;;;;;;;1.65;0.68;;;14.40;99.90;;;;;;5053450;28;20084;-51
2023/06/04 06:35:36;;;;;;;6.07;1.05;;;14.40;99.90;;;;;;5053566;28;20128;-55
2023/06/04 06:38:02;;;;;;;4.00;0.73;;;14.40;99.90;;;;;;5053483;28;20115;-56
2023/06/04 06:40:30;;;;;;;5.95;0.82;;;14.50;99.90;;;;;;5053488;28;20041;-56
2023/06/04 06:42:56;;;;;;;2.42;0.77;;;14.50;99.90;;;;;;5053404;28;20057;-51
2023/06/04 06:45:21;;;;;;;2.85;0.70;;;14.60;99.90;;;;;;5053586;28;20098;-53
2023/06/04 06:47:47;;;;;;;4.15;0.70;;;14.60;99.90;;;;;;5053436;28;20128;-55
2023/06/04 06:50:13;;;;;;;2.15;0.65;;;14.70;99.90;;;;;;5053368;28;20127;-50
2023/06/04 06:52:39;;;;;;;3.70;1.00;;;14.70;99.90;;;;;;5055963;28;20392;-56
2023/06/04 06:55:05;;;;;;;2.17;0.60;;;14.90;99.90;;;;;;5057279;28;20283;-55
2023/06/04 06:57:31;;;;;;;1.33;0.50;;;15.00;99.90;;;;;;5057241;28;20283;-56
2023/06/04 06:59:57;;;;;;;2.80;0.90;;;15.10;99.90;;;;;;5057353;28;20126;-56
2023/06/04 07:02:22;;;;;;;2.23;0.70;;;15.10;99.90;;;;;;5057347;28;20045;-54
2023/06/04 07:04:48;;;;;;;1.83;0.60;;;15.10;99.90;;;;;;5057321;28;20762;-57
2023/06/04 07:07:14;;;;;;;2.65;0.55;;;15.20;99.90;;;;;;5057355;28;20404;-56
2023/06/04 07:09:39;;;;;;;2.93;0.70;;;15.20;99.90;;;;;;5056174;28;20404;-56
2023/06/04 07:12:06;;;;;;;2.37;0.70;;;15.20;99.90;;;;;;5056871;28;20298;-56
2023/06/04 07:14:32;;;;;;;2.63;0.70;;;15.30;99.90;;;;;;5056880;28;20477;-56
2023/06/04 07:16:57;;;;;;;3.97;0.68;;;15.50;99.90;;;;;;5056151;28;20132;-57
2023/06/04 07:19:23;;;;;;;3.00;0.57;;;15.60;99.90;;;;;;5057067;28;20052;-56
2023/06/04 07:21:52;;;;;;;1.58;0.60;;;15.70;99.90;;;;;;5056924;28;20060;-56
2023/06/04 07:24:18;;;;;;;2.13;0.60;;;15.80;99.90;;;;;;5056898;28;20480;-56
2023/06/04 07:26:43;;;;;;;2.73;1.07;;;16.20;99.90;;;;;;5055519;28;20068;-56
2023/06/04 07:29:09;;;;;;;2.10;0.68;;;16.60;99.90;;;;;;5056929;28;20053;-56
2023/06/04 07:31:35;;;;;;;2.60;0.70;;;16.70;99.90;;;;;;5057237;28;20123;-56
2023/06/04 07:34:01;;;;;;;2.57;0.50;;;16.70;99.90;;;;;;5056962;28;20099;-57
2023/06/04 07:36:26;;;;;;;2.13;0.50;;;16.70;99.90;;;;;;5055977;28;20045;-54
2023/06/04 07:38:52;;;;;;;3.38;0.60;;;16.60;99.90;;;;;;5056719;28;20041;-54
2023/06/04 07:41:18;;;;;;;2.67;0.70;;;16.40;99.90;;;;;;5056445;28;20041;-56
2023/06/04 07:43:44;;;;;;;2.50;0.55;;;16.30;99.90;;;;;;5056851;28;20099;-56
2023/06/04 07:46:10;;;;;;;2.35;0.50;;;16.20;99.90;;;;;;5055302;28;20085;-53
2023/06/04 07:48:36;;;;;;;4.93;1.00;;;16.10;99.90;;;;;;5056501;28;20045;-56
2023/06/04 07:51:04;;;;;;;1.73;0.43;;;16.10;99.90;;;;;;5056182;28;20103;-56
2023/06/04 07:53:30;;;;;;;3.55;0.70;;;16.10;99.90;;;;;;5055432;28;20045;-56
2023/06/04 07:55:57;;;;;;;2.38;0.55;;;16.10;99.90;;;;;;5056122;28;20049;-55
2023/06/04 07:58:23;;;;;;;3.85;0.60;;;16.10;99.90;;;;;;5056315;28;20052;-55
2023/06/04 08:00:48;;;;;;;4.65;1.08;;;16.00;99.90;;;;;;5056193;28;20041;-56
2023/06/04 08:03:18;;;;;;;3.40;0.75;;;16.00;99.90;;;;;;5055773;28;20053;-56
2023/06/04 08:05:44;;;;;;;2.10;0.88;;;16.00;99.90;;;;;;5055984;28;20056;-53
2023/06/04 08:08:10;;;;;;;3.83;0.80;;;16.00;99.90;;;;;;5054988;28;20048;-56
2023/06/04 08:10:35;;;;;;;2.07;0.60;;;16.00;99.90;;;;;;5055796;28;20048;-55
2023/06/04 08:13:01;;;;;;;2.43;0.77;;;16.00;99.90;;;;;;5056062;28;20279;-50
2023/06/04 08:15:27;;;;;;;4.00;0.60;;;16.00;99.90;;;;;;5055913;28;20077;-56
2023/06/04 08:17:52;;;;;;;2.37;0.83;;;16.00;99.90;;;;;;5054914;28;20287;-56
2023/06/04 08:20:18;;;;;;;2.73;0.60;;;16.00;99.90;;;;;;5055822;28;20095;-56
2023/06/04 08:22:43;;;;;;;4.00;0.80;;;16.10;99.90;;;;;;5054671;28;20049;-56
2023/06/04 08:25:09;;;;;;;4.73;0.73;;;16.10;99.90;;;;;;5055721;28;20045;-56
2023/06/04 08:27:35;;;;;;;2.85;0.65;;;16.10;99.90;;;;;;5054576;28;20319;-56
2023/06/04 08:30:02;;;;;;;3.05;1.10;;;16.10;99.90;;;;;;5055603;28;20404;-56
2023/06/04 08:32:27;;;;;;;;;;;16.10;99.90;;;;;;5056209;28;20602;-56
2023/06/04 08:34:54;;;;;;;1.60;0.43;;;16.10;99.90;;;;;;5055604;28;20011;-52
2023/06/04 08:37:20;;;;;;;3.22;0.93;;;16.10;99.90;;;;;;5054483;28;20124;-56
2023/06/04 08:39:46;;;;;;;3.53;0.80;;;16.10;99.90;;;;;;5054284;28;20048;-51
2023/06/04 08:42:29;;;;;;;2.75;0.70;;;16.10;99.90;;;;;;5054546;28;20107;-55
2023/06/04 08:44:57;;;;;;;1.75;0.63;;;16.10;99.90;;;;;;5054242;28;20049;-57
2023/06/04 08:47:25;;;;;;;2.35;0.60;;;16.10;99.90;;;;;;5055322;28;20041;-53
2023/06/04 08:49:52;;;;;;;2.60;0.70;;;16.10;99.90;;;;;;5054246;28;20547;-56
2023/06/04 08:52:21;;;;;;;;;;;16.10;99.90;;;;;;5054174;28;20550;-57
2023/06/04 08:54:52;;;;;;;3.03;0.50;;;16.10;99.90;;;;;;5055219;28;20058;-54
2023/06/04 08:57:21;;;;;;;3.08;0.60;;;16.10;99.90;;;;;;5055138;28;20044;-56
2023/06/04 08:59:48;;;;;;;2.22;0.70;;;16.10;99.90;;;;;;5055372;28;20459;-54
2023/06/04 09:02:17;;;;;;;2.20;0.50;;;16.10;99.90;;;;;;5055105;28;20128;-56
2023/06/04 09:04:43;;;;;;;1.55;0.50;;;16.10;99.90;;;;;;5054668;28;20534;-57
2023/06/04 09:07:12;;;;;;;3.85;0.40;;;16.10;99.90;;;;;;5054989;28;20044;-56
2023/06/04 09:09:40;;;;;;;2.83;0.80;;;16.10;99.90;;;;;;5054998;28;20037;-56
2023/06/04 09:12:11;;;;;;;1.65;0.52;;;16.10;99.90;;;;;;5054868;28;20045;-55
2023/06/04 09:14:37;;;;;;;1.10;0.45;;;16.10;99.90;;;;;;5054887;28;20041;-57
2023/06/04 09:17:03;;;;;;;3.53;0.60;;;16.10;99.90;;;;;;5054708;28;20052;-58
2023/06/04 09:19:29;;;;;;;1.92;0.60;;;16.10;99.90;;;;;;5054859;28;20049;-57
2023/06/04 09:21:57;;;;;;;2.37;0.67;;;16.10;99.90;;;;;;5054764;28;20044;-58
2023/06/04 09:24:42;;;;;;;1.88;0.55;;;16.10;99.90;;;;;;5054844;28;20284;-58
2023/06/04 09:27:16;;;;;;;2.60;0.88;;;16.20;99.90;;;;;;5054823;28;20115;-58
2023/06/04 09:29:55;;;;;;;3.80;1.05;;;16.20;99.90;;;;;;5054512;28;20103;-57
2023/06/04 09:32:29;;;;;;;2.65;0.80;;;16.10;99.90;;;;;;5054419;28;20052;-58
2023/06/04 09:35:16;;;;;;;2.03;0.60;;;16.20;99.90;;;;;;5054531;28;20041;-57
2023/06/04 09:37:43;;;;;;;3.90;0.70;;;16.10;99.90;;;;;;5053622;28;20049;-58
2023/06/04 09:40:09;;;;;;;2.80;0.60;;;16.10;99.90;;;;;;5053156;28;20484;-57
2023/06/04 09:42:54;;;;;;;1.48;0.50;;;16.20;99.90;;;;;;5054329;28;20056;-60
2023/06/04 09:45:31;;;;;;;2.20;0.63;;;16.20;99.90;;;;;;5054566;28;20057;-58
2023/06/04 09:47:58;;;;;;;1.42;0.70;;;16.10;99.90;;;;;;5054093;28;20071;-58
2023/06/04 09:50:30;;;;;;;2.67;0.88;;;16.20;99.90;;;;;;5036524;28;20057;-58
2023/06/04 09:52:56;;;;;;;2.33;0.50;;;16.20;99.90;;;;;;5054170;28;20045;-58
2023/06/04 09:55:23;;;;;;;1.20;0.40;;;16.20;99.90;;;;;;5054390;28;20546;-57
2023/06/04 09:57:50;;;;;;;1.73;0.60;;;16.30;99.90;;;;;;5054192;28;20482;-58
2023/06/04 10:00:17;;;;;;;1.35;0.50;;;16.30;99.90;;;;;;5053977;28;20041;-58
2023/06/04 10:02:45;;;;;;;1.95;0.52;;;16.40;99.90;;;;;;5053919;28;20559;-59
2023/06/04 10:05:14;;;;;;;1.40;0.50;;;16.40;99.90;;;;;;5053701;28;20080;-58
2023/06/04 10:07:44;;;;;;;1.42;0.40;;;16.40;99.90;;;;;;5054223;28;20113;-57
2023/06/04 10:10:19;;;;;;;2.33;0.80;;;16.50;99.90;;;;;;5053913;28;20130;-58
2023/06/04 10:12:54;;;;;;;2.50;0.60;;;16.50;99.90;;;;;;5054042;28;20123;-57
2023/06/04 10:15:20;;;;;;;0.98;0.40;;;16.60;99.90;;;;;;5052869;28;20052;-59
2023/06/04 10:17:47;;;;;;;;;;;16.70;99.90;;;;;;5052838;28;20045;-58
2023/06/04 10:20:13;;;;;;;2.67;0.65;;;16.70;99.90;;;;;;5052867;28;19921;-58
2023/06/04 10:22:39;;;;;;;1.15;0.43;;;16.80;99.90;;;;;;5053707;28;20049;-59
2023/06/04 10:25:05;;;;;;;2.10;0.68;;;16.90;99.90;;;;;;5053804;28;20056;-59
2023/06/04 10:27:32;;;;;;;2.67;0.50;;;17.00;99.90;;;;;;5053044;28;20090;-58
2023/06/04 10:29:58;;;;;;;2.60;0.70;;;17.00;99.90;;;;;;5053439;28;20500;-58
2023/06/04 10:32:30;;;;;;;1.42;0.50;;;17.10;99.90;;;;;;5052072;28;20041;-58
2023/06/04 10:34:57;;;;;;;2.08;0.57;;;17.20;99.90;;;;;;5053567;28;20049;-59
2023/06/04 10:37:23;;;;;;;;;;;17.30;99.90;;;;;;5054299;28;20053;-59
2023/06/04 10:39:56;;;;;;;1.52;0.50;;;17.40;99.90;;;;;;5053544;28;19920;-58
2023/06/04 10:42:23;;;;;;;1.02;0.50;;;17.50;99.90;;;;;;5053309;28;20056;-59
2023/06/04 10:44:53;;;;;;;2.20;0.60;;;17.60;99.90;;;;;;5053391;28;20048;-59
2023/06/04 10:47:19;;;;;;;1.48;0.52;;;17.70;99.90;;;;;;5053554;28;20563;-58
2023/06/04 10:49:44;;;;;;;1.83;0.70;;;17.80;99.90;;;;;;5052966;28;20141;-58
2023/06/04 10:52:11;;;;;;;1.40;0.57;;;17.90;99.90;;;;;;5053802;28;20388;-59
2023/06/04 10:54:36;;;;;;;1.20;0.50;;;18.00;99.90;;;;;;5053373;28;20287;-59
2023/06/04 10:57:15;;;;;;;2.22;0.75;;;18.10;99.90;;;;;;5053318;28;20055;-59
2023/06/04 10:59:41;;;;;;;4.68;1.08;;;18.20;99.90;;;;;;5052780;28;20055;-59
2023/06/04 11:02:08;;;;;;;3.40;0.90;;;18.30;99.90;;;;;;5053420;28;20037;-58
2023/06/04 11:04:35;;;;;;;1.88;0.50;;;18.30;99.90;;;;;;5053252;28;20041;-59
2023/06/04 11:07:08;;;;;;;1.73;0.60;;;18.40;99.90;;;;;;5053285;28;20091;-59
2023/06/04 11:09:48;;;;;;;2.58;0.60;;;18.50;99.90;;;;;;5053307;28;20144;-58
2023/06/04 11:12:13;;;;;;;3.03;0.70;;;18.60;99.90;;;;;;5053396;28;20381;-59
2023/06/04 11:14:39;;;;;;;2.08;0.60;;;18.60;99.90;;;;;;5052088;28;20052;-59
2023/06/04 11:17:12;;;;;;;4.10;0.73;;;18.80;99.90;;;;;;5053264;28;20476;-59
2023/06/04 11:19:38;;;;;;;2.25;0.60;;;18.80;99.90;;;;;;5052880;28;20053;-58
2023/06/04 11:22:05;;;;;;;2.78;0.60;;;19.00;99.90;;;;;;5053061;28;20051;-59
2023/06/04 11:24:32;;;;;;;2.40;0.50;;;19.00;99.90;;;;;;5052699;28;20115;-60
2023/06/04 11:27:02;;;;;;;2.03;0.55;;;19.10;99.90;;;;;;5052848;28;20060;-59
2023/06/04 11:29:28;;;;;;;2.78;1.50;;;19.10;99.90;;;;;;5053296;28;20049;-60
2023/06/04 11:31:54;;;;;;;1.92;0.57;;;19.30;99.90;;;;;;5052775;28;20041;-59
2023/06/04 11:34:27;;;;;;;1.65;0.57;;;19.30;99.90;;;;;;5051834;28;20041;-59
2023/06/04 11:36:54;;;;;;;1.83;0.50;;;19.20;99.90;;;;;;5052810;28;20055;-60
2023/06/04 11:39:20;;;;;;;1.77;0.70;;;19.30;99.90;;;;;;5053814;28;20060;-59
2023/06/04 11:41:47;;;;;;;6.45;1.20;;;19.30;99.90;;;;;;5056215;28;20053;-59
2023/06/04 11:44:13;;;;;;;1.67;0.57;;;19.30;99.90;;;;;;5038836;28;20178;-58
2023/06/04 11:46:43;;;;;;;1.40;0.57;;;19.40;99.90;;;;;;5056612;28;20534;-59
2023/06/04 11:49:14;;;;;;;1.95;0.60;;;19.40;99.90;;;;;;5056468;28;20059;-59
2023/06/04 11:51:49;;;;;;;4.05;0.60;;;19.40;99.90;;;;;;5056223;28;20044;-59
2023/06/04 11:54:19;;;;;;;1.55;0.43;;;19.40;99.90;;;;;;5056473;28;20098;-59
2023/06/04 11:56:48;;;;;;;2.78;0.70;;;19.50;99.90;;;;;;5056509;28;20049;-60
2023/06/04 11:59:16;;;;;;;4.13;0.60;;;19.50;99.90;;;;;;5055252;28;20053;-59
2023/06/04 12:01:43;;;;;;;1.88;0.68;;;19.60;99.90;;;;;;5056342;28;20123;-59
2023/06/04 12:04:16;;;;;;;2.80;0.73;;;19.60;99.90;;;;;;5054915;28;20519;-59
2023/06/04 12:07:00;;;;;;;2.75;0.80;;;19.70;99.90;;;;;;5055242;28;20049;-61
2023/06/04 12:09:28;;;;;;;2.05;0.60;;;19.60;99.90;;;;;;5056151;28;20037;-60
2023/06/04 12:12:05;;;;;;;2.97;0.50;;;19.60;99.90;;;;;;5056210;28;20440;-60
2023/06/04 12:14:31;;;;;;;;;;;19.60;99.90;;;;;;5056410;28;20053;-62
2023/06/04 12:17:01;;;;;;;2.40;1.02;;;19.60;99.90;;;;;;5056000;28;20330;-60
2023/06/04 12:19:27;;;;;;;1.98;0.52;;;19.60;99.90;;;;;;5055846;28;20044;-59
2023/06/04 12:22:05;;;;;;;1.83;0.40;;;19.70;99.90;;;;;;5054956;28;20123;-60
2023/06/04 12:24:45;;;;;;;1.50;0.47;;;19.80;99.90;;;;;;5054678;28;20199;-60
2023/06/04 12:27:11;;;;;;;3.13;0.63;;;19.80;99.90;;;;;;5056010;28;20057;-61
2023/06/04 12:29:37;;;;;;;4.75;0.68;;;19.80;99.90;;;;;;5055799;28;20404;-61
2023/06/04 12:32:13;;;;;;;1.05;0.50;;;19.90;99.90;;;;;;5054392;28;20076;-59
2023/06/04 12:34:40;;;;;;;1.30;0.40;;;19.90;99.90;;;;;;5055637;28;20056;-61
2023/06/04 12:37:06;;;;;;;2.90;0.63;;;20.00;99.90;;;;;;5054344;28;20041;-61
2023/06/04 12:39:38;;;;;;;4.60;1.77;;;20.00;99.90;;;;;;5055330;28;20049;-60
2023/06/04 12:42:08;;;;;;;1.88;0.60;;;20.00;99.90;;;;;;5054591;28;20059;-60
2023/06/04 12:44:36;;;;;;;2.50;0.40;;;20.10;99.90;;;;;;5055893;28;20103;-59
2023/06/04 12:47:03;;;;;;;1.45;0.50;;;20.00;99.90;;;;;;5055313;28;20052;-61
2023/06/04 12:49:29;;;;;;;1.25;0.40;;;20.00;99.90;;;;;;5055015;28;20048;-61
2023/06/04 12:51:54;;;;;;;1.60;0.68;;;19.90;99.90;;;;;;5054142;28;20542;-64